Skip Navigation Links Skip Navigation Links

Current Weather

Tan-Tan, Morocco

For information only: do not use for flight planning or navigation.
Latest weather
Observation time Monday, July 23, 2018 2:00 PM WEST
Local time Monday, July 23, 2018 2:24 PM WEST
Flight conditions Marginal Visual Meteorological Conditions
Winds
Wind direction North (360°)
Wind speed 18 mph
Visibility 3.7 mi.
Sky condition
Ceiling unlimited
Cloud layer scattered clouds 1,600 ft.
Temperature 72°F
Dewpoint 61°F
Altimeter 29.97 in.Hg
Derived measurements
Relative humidity 69%
Density altitude 1237 ft.
Remarks
No significant changes expected in the next two hours.
METAR GMAT 231300Z 36016KT 6000 SCT016 22/16 Q1015 NOSIG

Settings

Location code

InnerDrive.Weather 4.0.6770.0 Release CLR 4.0.30319.42000
Copyright ©2018 Inner Drive Technology. All rights reserved. Portions Copyright ©1986-2018 David Braverman.

Find weather

Site navigation


Skip Navigation Links

Place info

Page info

PayPal - The safer, easier way to pay online!

Return home.

Copyright ©2018 Inner Drive Technology. Purveyors of fine, hand-crafted computer software. Page printed 2018-07-23T13:24:24 UTC.